sensor_id;sensor_type;location;lat;lon;timestamp;temperature;humidity
19242;DHT22;9755;47.790;9.620;2023-06-22T00:01:18;19.80;99.90
19242;DHT22;9755;47.790;9.620;2023-06-22T00:03:46;19.80;99.90
19242;DHT22;9755;47.790;9.620;2023-06-22T00:06:14;19.80;99.90
19242;DHT22;9755;47.790;9.620;2023-06-22T00:08:41;19.70;99.90
19242;DHT22;9755;47.790;9.620;2023-06-22T00:11:08;19.70;99.90
19242;DHT22;9755;47.790;9.620;2023-06-22T00:13:35;19.60;99.90
19242;DHT22;9755;47.790;9.620;2023-06-22T00:16:04;19.60;99.90
19242;DHT22;9755;47.790;9.620;2023-06-22T00:18:31;19.70;99.90
19242;DHT22;9755;47.790;9.620;2023-06-22T00:20:58;19.70;99.90
19242;DHT22;9755;47.790;9.620;2023-06-22T00:23:26;19.70;99.90
19242;DHT22;9755;47.790;9.620;2023-06-22T00:25:53;19.60;99.90
19242;DHT22;9755;47.790;9.620;2023-06-22T00:28:20;19.50;99.90
19242;DHT22;9755;47.790;9.620;2023-06-22T00:30:48;19.40;99.90
19242;DHT22;9755;47.790;9.620;2023-06-22T00:33:16;19.40;99.90
19242;DHT22;9755;47.790;9.620;2023-06-22T00:35:44;19.40;99.90
19242;DHT22;9755;47.790;9.620;2023-06-22T00:38:11;19.40;99.90
19242;DHT22;9755;47.790;9.620;2023-06-22T00:40:38;19.40;99.90
19242;DHT22;9755;47.790;9.620;2023-06-22T00:43:05;19.30;99.90
19242;DHT22;9755;47.790;9.620;2023-06-22T00:45:32;19.30;99.90
19242;DHT22;9755;47.790;9.620;2023-06-22T00:48:00;19.30;99.90
19242;DHT22;9755;47.790;9.620;2023-06-22T00:50:30;19.40;99.90
19242;DHT22;9755;47.790;9.620;2023-06-22T00:53:00;19.40;99.90
19242;DHT22;9755;47.790;9.620;2023-06-22T00:55:30;19.30;99.90
19242;DHT22;9755;47.790;9.620;2023-06-22T00:57:57;19.30;99.90
19242;DHT22;9755;47.790;9.620;2023-06-22T01:00:24;19.20;99.90
19242;DHT22;9755;47.790;9.620;2023-06-22T01:02:52;19.20;99.90
19242;DHT22;9755;47.790;9.620;2023-06-22T01:05:21;19.20;99.90
19242;DHT22;9755;47.790;9.620;2023-06-22T01:08:00;19.20;99.90
19242;DHT22;9755;47.790;9.620;2023-06-22T01:10:37;19.20;99.90
19242;DHT22;9755;47.790;9.620;2023-06-22T01:13:11;19.20;99.90
19242;DHT22;9755;47.790;9.620;2023-06-22T01:15:44;19.10;99.90
19242;DHT22;9755;47.790;9.620;2023-06-22T01:18:17;19.10;99.90
19242;DHT22;9755;47.790;9.620;2023-06-22T01:20:46;19.10;99.90
19242;DHT22;9755;47.790;9.620;2023-06-22T01:23:24;19.10;99.90
19242;DHT22;9755;47.790;9.620;2023-06-22T01:25:59;19.10;99.90
19242;DHT22;9755;47.790;9.620;2023-06-22T01:28:49;19.10;99.90
19242;DHT22;9755;47.790;9.620;2023-06-22T01:31:18;19.00;99.90
19242;DHT22;9755;47.790;9.620;2023-06-22T01:33:50;19.00;64.20
19242;DHT22;9755;47.790;9.620;2023-06-22T01:36:18;18.90;85.70
19242;DHT22;9755;47.790;9.620;2023-06-22T01:38:47;18.90;99.90
19242;DHT22;9755;47.790;9.620;2023-06-22T01:41:15;18.80;99.90
19242;DHT22;9755;47.790;9.620;2023-06-22T01:43:43;18.80;99.90
19242;DHT22;9755;47.790;9.620;2023-06-22T01:46:12;18.70;99.90
19242;DHT22;9755;47.790;9.620;2023-06-22T01:48:39;18.70;99.90
19242;DHT22;9755;47.790;9.620;2023-06-22T01:51:06;18.70;99.90
19242;DHT22;9755;47.790;9.620;2023-06-22T01:53:33;18.60;99.90
19242;DHT22;9755;47.790;9.620;2023-06-22T01:56:00;18.60;99.90
19242;DHT22;9755;47.790;9.620;2023-06-22T01:58:29;18.60;99.90
19242;DHT22;9755;47.790;9.620;2023-06-22T02:00:59;18.50;99.90
19242;DHT22;9755;47.790;9.620;2023-06-22T02:03:35;18.50;99.90
19242;DHT22;9755;47.790;9.620;2023-06-22T02:06:06;18.40;99.90
19242;DHT22;9755;47.790;9.620;2023-06-22T02:08:40;18.40;99.90
19242;DHT22;9755;47.790;9.620;2023-06-22T02:11:09;18.30;99.90
19242;DHT22;9755;47.790;9.620;2023-06-22T02:13:37;18.40;99.90
19242;DHT22;9755;47.790;9.620;2023-06-22T02:16:08;18.40;99.90
19242;DHT22;9755;47.790;9.620;2023-06-22T02:18:37;18.30;99.90
19242;DHT22;9755;47.790;9.620;2023-06-22T02:21:06;18.40;99.90
19242;DHT22;9755;47.790;9.620;2023-06-22T02:23:33;18.30;99.90
19242;DHT22;9755;47.790;9.620;2023-06-22T02:26:01;18.30;99.90
19242;DHT22;9755;47.790;9.620;2023-06-22T02:28:29;18.30;99.90
19242;DHT22;9755;47.790;9.620;2023-06-22T02:30:56;18.30;99.90
19242;DHT22;9755;47.790;9.620;2023-06-22T02:33:23;18.30;99.90
19242;DHT22;9755;47.790;9.620;2023-06-22T02:35:51;18.30;99.90
19242;DHT22;9755;47.790;9.620;2023-06-22T02:38:18;18.30;99.90
19242;DHT22;9755;47.790;9.620;2023-06-22T02:40:46;18.30;99.90
19242;DHT22;9755;47.790;9.620;2023-06-22T02:43:13;18.30;99.90
19242;DHT22;9755;47.790;9.620;2023-06-22T02:45:40;18.30;99.90
19242;DHT22;9755;47.790;9.620;2023-06-22T02:48:07;18.30;99.90
19242;DHT22;9755;47.790;9.620;2023-06-22T02:50:34;18.30;99.90
19242;DHT22;9755;47.790;9.620;2023-06-22T02:53:02;18.30;99.90
19242;DHT22;9755;47.790;9.620;2023-06-22T02:55:29;18.30;99.90
19242;DHT22;9755;47.790;9.620;2023-06-22T02:57:57;18.20;99.90
19242;DHT22;9755;47.790;9.620;2023-06-22T03:00:25;18.20;99.90
19242;DHT22;9755;47.790;9.620;2023-06-22T03:02:56;18.20;99.90
19242;DHT22;9755;47.790;9.620;2023-06-22T03:05:24;18.20;99.90
19242;DHT22;9755;47.790;9.620;2023-06-22T03:07:51;18.20;99.90
19242;DHT22;9755;47.790;9.620;2023-06-22T03:10:20;18.10;99.90
19242;DHT22;9755;47.790;9.620;2023-06-22T03:12:47;18.20;99.90
19242;DHT22;9755;47.790;9.620;2023-06-22T03:15:14;18.10;99.90
19242;DHT22;9755;47.790;9.620;2023-06-22T03:17:42;18.10;99.90
19242;DHT22;9755;47.790;9.620;2023-06-22T03:20:10;18.10;99.90
19242;DHT22;9755;47.790;9.620;2023-06-22T03:22:38;18.10;99.90
19242;DHT22;9755;47.790;9.620;2023-06-22T03:25:05;18.00;99.90
19242;DHT22;9755;47.790;9.620;2023-06-22T03:27:37;18.00;99.90
19242;DHT22;9755;47.790;9.620;2023-06-22T03:30:05;17.90;99.90
19242;DHT22;9755;47.790;9.620;2023-06-22T03:32:32;18.00;99.90
19242;DHT22;9755;47.790;9.620;2023-06-22T03:35:00;18.00;99.90
19242;DHT22;9755;47.790;9.620;2023-06-22T03:37:28;17.90;99.90
19242;DHT22;9755;47.790;9.620;2023-06-22T03:39:55;17.90;99.90
19242;DHT22;9755;47.790;9.620;2023-06-22T03:42:22;17.90;99.90
19242;DHT22;9755;47.790;9.620;2023-06-22T03:44:50;17.90;99.90
19242;DHT22;9755;47.790;9.620;2023-06-22T03:47:18;17.90;99.90
19242;DHT22;9755;47.790;9.620;2023-06-22T03:49:45;17.90;99.90
19242;DHT22;9755;47.790;9.620;2023-06-22T03:52:12;17.90;99.90
19242;DHT22;9755;47.790;9.620;2023-06-22T03:54:39;17.90;99.90
19242;DHT22;9755;47.790;9.620;2023-06-22T03:57:06;18.00;99.90
19242;DHT22;9755;47.790;9.620;2023-06-22T03:59:33;18.00;99.90
19242;DHT22;9755;47.790;9.620;2023-06-22T04:02:02;18.10;99.90
19242;DHT22;9755;47.790;9.620;2023-06-22T04:04:29;18.10;99.90
19242;DHT22;9755;47.790;9.620;2023-06-22T04:06:56;18.20;99.90
19242;DHT22;9755;47.790;9.620;2023-06-22T04:09:23;18.20;99.90
19242;DHT22;9755;47.790;9.620;2023-06-22T04:11:50;18.40;99.90
19242;DHT22;9755;47.790;9.620;2023-06-22T04:14:17;18.50;99.90
19242;DHT22;9755;47.790;9.620;2023-06-22T04:16:44;18.60;99.90
19242;DHT22;9755;47.790;9.620;2023-06-22T04:19:13;18.70;99.90
19242;DHT22;9755;47.790;9.620;2023-06-22T04:21:42;18.80;99.90
19242;DHT22;9755;47.790;9.620;2023-06-22T04:24:10;18.90;99.90
19242;DHT22;9755;47.790;9.620;2023-06-22T04:26:37;19.10;99.90
19242;DHT22;9755;47.790;9.620;2023-06-22T04:29:04;19.30;31.30
19242;DHT22;9755;47.790;9.620;2023-06-22T04:31:31;19.30;1.00
19242;DHT22;9755;47.790;9.620;2023-06-22T04:34:03;19.40;1.00
19242;DHT22;9755;47.790;9.620;2023-06-22T04:36:34;19.40;1.00
19242;DHT22;9755;47.790;9.620;2023-06-22T04:39:05;19.40;1.00
19242;DHT22;9755;47.790;9.620;2023-06-22T04:41:32;19.50;1.00
19242;DHT22;9755;47.790;9.620;2023-06-22T04:44:08;19.70;1.00
19242;DHT22;9755;47.790;9.620;2023-06-22T04:46:36;20.00;1.00
19242;DHT22;9755;47.790;9.620;2023-06-22T04:49:05;20.10;99.90
19242;DHT22;9755;47.790;9.620;2023-06-22T04:51:37;20.20;99.90
19242;DHT22;9755;47.790;9.620;2023-06-22T04:54:05;20.70;99.90
19242;DHT22;9755;47.790;9.620;2023-06-22T04:56:32;21.00;99.90
19242;DHT22;9755;47.790;9.620;2023-06-22T04:58:59;21.10;99.90
19242;DHT22;9755;47.790;9.620;2023-06-22T05:01:26;21.00;99.90
19242;DHT22;9755;47.790;9.620;2023-06-22T05:03:53;21.20;99.90
19242;DHT22;9755;47.790;9.620;2023-06-22T05:06:22;21.40;99.90
19242;DHT22;9755;47.790;9.620;2023-06-22T05:08:52;21.30;99.90
19242;DHT22;9755;47.790;9.620;2023-06-22T05:11:23;21.60;99.90
19242;DHT22;9755;47.790;9.620;2023-06-22T05:13:50;22.10;99.90
19242;DHT22;9755;47.790;9.620;2023-06-22T05:16:17;22.40;99.90
19242;DHT22;9755;47.790;9.620;2023-06-22T05:18:52;22.80;99.90
19242;DHT22;9755;47.790;9.620;2023-06-22T05:21:24;23.00;99.90
19242;DHT22;9755;47.790;9.620;2023-06-22T05:23:53;23.40;99.90
19242;DHT22;9755;47.790;9.620;2023-06-22T05:26:22;23.70;99.90
19242;DHT22;9755;47.790;9.620;2023-06-22T05:28:49;24.10;99.90
19242;DHT22;9755;47.790;9.620;2023-06-22T05:31:16;24.40;99.90
19242;DHT22;9755;47.790;9.620;2023-06-22T05:33:45;24.30;99.90
19242;DHT22;9755;47.790;9.620;2023-06-22T05:36:13;24.10;99.90
19242;DHT22;9755;47.790;9.620;2023-06-22T05:38:41;23.80;99.90
19242;DHT22;9755;47.790;9.620;2023-06-22T05:41:09;24.00;99.90
19242;DHT22;9755;47.790;9.620;2023-06-22T05:43:36;24.40;99.90
19242;DHT22;9755;47.790;9.620;2023-06-22T05:46:04;24.70;99.90
19242;DHT22;9755;47.790;9.620;2023-06-22T05:48:31;24.80;99.90
19242;DHT22;9755;47.790;9.620;2023-06-22T05:50:59;24.80;99.90
19242;DHT22;9755;47.790;9.620;2023-06-22T05:53:26;24.70;99.90
19242;DHT22;9755;47.790;9.620;2023-06-22T05:55:53;25.30;99.90
19242;DHT22;9755;47.790;9.620;2023-06-22T05:58:21;26.00;99.90
19242;DHT22;9755;47.790;9.620;2023-06-22T06:00:48;26.40;99.00
19242;DHT22;9755;47.790;9.620;2023-06-22T06:03:15;27.30;96.40
19242;DHT22;9755;47.790;9.620;2023-06-22T06:05:44;27.30;94.60
19242;DHT22;9755;47.790;9.620;2023-06-22T06:08:11;27.80;93.10
19242;DHT22;9755;47.790;9.620;2023-06-22T06:10:38;28.00;92.00
19242;DHT22;9755;47.790;9.620;2023-06-22T06:13:06;28.10;91.90
19242;DHT22;9755;47.790;9.620;2023-06-22T06:15:34;28.00;91.20
19242;DHT22;9755;47.790;9.620;2023-06-22T06:18:02;28.20;90.60
19242;DHT22;9755;47.790;9.620;2023-06-22T06:20:31;28.70;89.30
19242;DHT22;9755;47.790;9.620;2023-06-22T06:22:58;28.80;86.10
19242;DHT22;9755;47.790;9.620;2023-06-22T06:25:25;28.10;87.30
19242;DHT22;9755;47.790;9.620;2023-06-22T06:27:52;28.60;86.30
19242;DHT22;9755;47.790;9.620;2023-06-22T06:30:20;29.10;83.90
19242;DHT22;9755;47.790;9.620;2023-06-22T06:32:49;28.90;82.90
19242;DHT22;9755;47.790;9.620;2023-06-22T06:35:17;29.30;81.80
19242;DHT22;9755;47.790;9.620;2023-06-22T06:37:45;29.20;81.80
19242;DHT22;9755;47.790;9.620;2023-06-22T06:40:14;29.20;81.20
19242;DHT22;9755;47.790;9.620;2023-06-22T06:42:42;29.20;81.00
19242;DHT22;9755;47.790;9.620;2023-06-22T06:45:11;29.60;79.50
19242;DHT22;9755;47.790;9.620;2023-06-22T06:47:38;29.90;77.80
19242;DHT22;9755;47.790;9.620;2023-06-22T06:50:08;29.90;76.50
19242;DHT22;9755;47.790;9.620;2023-06-22T06:52:35;30.30;75.30
19242;DHT22;9755;47.790;9.620;2023-06-22T06:55:03;31.20;73.40
19242;DHT22;9755;47.790;9.620;2023-06-22T06:57:33;30.60;71.50
19242;DHT22;9755;47.790;9.620;2023-06-22T07:00:01;31.10;71.70
19242;DHT22;9755;47.790;9.620;2023-06-22T07:02:33;31.50;68.00
19242;DHT22;9755;47.790;9.620;2023-06-22T07:05:00;32.90;64.30
19242;DHT22;9755;47.790;9.620;2023-06-22T07:07:30;33.30;59.90
19242;DHT22;9755;47.790;9.620;2023-06-22T07:09:57;33.10;58.50
19242;DHT22;9755;47.790;9.620;2023-06-22T07:12:24;33.10;58.10
19242;DHT22;9755;47.790;9.620;2023-06-22T07:14:52;33.30;56.40
19242;DHT22;9755;47.790;9.620;2023-06-22T07:17:19;33.20;56.10
19242;DHT22;9755;47.790;9.620;2023-06-22T07:19:46;33.20;56.90
19242;DHT22;9755;47.790;9.620;2023-06-22T07:22:13;33.30;55.20
19242;DHT22;9755;47.790;9.620;2023-06-22T07:24:41;33.70;54.00
19242;DHT22;9755;47.790;9.620;2023-06-22T07:27:08;33.60;54.30
19242;DHT22;9755;47.790;9.620;2023-06-22T07:29:37;34.00;52.40
19242;DHT22;9755;47.790;9.620;2023-06-22T07:32:06;34.30;52.60
19242;DHT22;9755;47.790;9.620;2023-06-22T07:34:33;34.90;50.00
19242;DHT22;9755;47.790;9.620;2023-06-22T07:37:00;35.00;48.40
19242;DHT22;9755;47.790;9.620;2023-06-22T07:39:27;35.00;46.40
19242;DHT22;9755;47.790;9.620;2023-06-22T07:41:56;34.20;46.60
19242;DHT22;9755;47.790;9.620;2023-06-22T07:44:23;34.90;46.00
19242;DHT22;9755;47.790;9.620;2023-06-22T07:46:50;34.20;46.60
19242;DHT22;9755;47.790;9.620;2023-06-22T07:49:17;33.30;48.30
19242;DHT22;9755;47.790;9.620;2023-06-22T07:51:44;34.10;48.40
19242;DHT22;9755;47.790;9.620;2023-06-22T07:54:11;33.80;47.90
19242;DHT22;9755;47.790;9.620;2023-06-22T07:56:41;34.50;47.80
19242;DHT22;9755;47.790;9.620;2023-06-22T07:59:10;34.10;47.30
19242;DHT22;9755;47.790;9.620;2023-06-22T08:01:37;35.00;45.60
19242;DHT22;9755;47.790;9.620;2023-06-22T08:04:04;34.60;46.40
19242;DHT22;9755;47.790;9.620;2023-06-22T08:06:32;35.60;44.60
19242;DHT22;9755;47.790;9.620;2023-06-22T08:08:59;35.90;42.70
19242;DHT22;9755;47.790;9.620;2023-06-22T08:11:26;36.90;40.90
19242;DHT22;9755;47.790;9.620;2023-06-22T08:13:53;35.50;43.00
19242;DHT22;9755;47.790;9.620;2023-06-22T08:16:25;36.80;40.40
19242;DHT22;9755;47.790;9.620;2023-06-22T08:18:52;37.90;38.20
19242;DHT22;9755;47.790;9.620;2023-06-22T08:21:20;38.00;36.30
19242;DHT22;9755;47.790;9.620;2023-06-22T08:23:48;38.60;35.30
19242;DHT22;9755;47.790;9.620;2023-06-22T08:26:15;39.20;33.60
19242;DHT22;9755;47.790;9.620;2023-06-22T08:28:42;38.80;32.30
19242;DHT22;9755;47.790;9.620;2023-06-22T08:31:09;39.70;30.90
19242;DHT22;9755;47.790;9.620;2023-06-22T08:33:39;40.10;28.80
19242;DHT22;9755;47.790;9.620;2023-06-22T08:36:06;38.50;28.60
19242;DHT22;9755;47.790;9.620;2023-06-22T08:38:34;38.80;29.40
19242;DHT22;9755;47.790;9.620;2023-06-22T08:41:01;37.90;30.40
19242;DHT22;9755;47.790;9.620;2023-06-22T08:43:28;38.00;29.70
19242;DHT22;9755;47.790;9.620;2023-06-22T08:45:55;37.30;29.80
19242;DHT22;9755;47.790;9.620;2023-06-22T08:48:22;35.40;29.90
19242;DHT22;9755;47.790;9.620;2023-06-22T08:50:50;35.00;32.00
19242;DHT22;9755;47.790;9.620;2023-06-22T08:53:17;34.70;32.50
19242;DHT22;9755;47.790;9.620;2023-06-22T08:55:45;34.40;33.30
19242;DHT22;9755;47.790;9.620;2023-06-22T08:58:12;33.50;36.50
19242;DHT22;9755;47.790;9.620;2023-06-22T09:00:39;33.70;37.70
19242;DHT22;9755;47.790;9.620;2023-06-22T09:03:06;33.60;38.70
19242;DHT22;9755;47.790;9.620;2023-06-22T09:05:33;33.50;37.00
19242;DHT22;9755;47.790;9.620;2023-06-22T09:08:02;33.70;38.20
19242;DHT22;9755;47.790;9.620;2023-06-22T09:10:29;34.60;37.50
19242;DHT22;9755;47.790;9.620;2023-06-22T09:12:56;35.60;36.00
19242;DHT22;9755;47.790;9.620;2023-06-22T09:15:24;35.70;34.80
19242;DHT22;9755;47.790;9.620;2023-06-22T09:17:51;34.60;35.60
19242;DHT22;9755;47.790;9.620;2023-06-22T09:20:19;32.80;38.60
19242;DHT22;9755;47.790;9.620;2023-06-22T09:22:47;32.10;42.30
19242;DHT22;9755;47.790;9.620;2023-06-22T09:25:16;31.50;45.50
19242;DHT22;9755;47.790;9.620;2023-06-22T09:27:43;31.90;46.00
19242;DHT22;9755;47.790;9.620;2023-06-22T09:30:10;33.30;46.60
19242;DHT22;9755;47.790;9.620;2023-06-22T09:32:37;33.40;45.30
19242;DHT22;9755;47.790;9.620;2023-06-22T09:35:05;33.70;44.80
19242;DHT22;9755;47.790;9.620;2023-06-22T09:37:34;34.10;44.40
19242;DHT22;9755;47.790;9.620;2023-06-22T09:40:01;34.40;41.90
19242;DHT22;9755;47.790;9.620;2023-06-22T09:42:33;35.30;40.30
19242;DHT22;9755;47.790;9.620;2023-06-22T09:45:00;36.10;38.30
19242;DHT22;9755;47.790;9.620;2023-06-22T09:47:28;37.00;36.40
19242;DHT22;9755;47.790;9.620;2023-06-22T09:49:55;37.30;33.90
19242;DHT22;9755;47.790;9.620;2023-06-22T09:52:24;35.90;33.80
19242;DHT22;9755;47.790;9.620;2023-06-22T09:54:51;35.70;35.60
19242;DHT22;9755;47.790;9.620;2023-06-22T09:57:19;36.50;32.60
19242;DHT22;9755;47.790;9.620;2023-06-22T09:59:47;37.20;30.80
19242;DHT22;9755;47.790;9.620;2023-06-22T10:02:14;37.80;29.20
19242;DHT22;9755;47.790;9.620;2023-06-22T10:04:41;37.90;28.40
19242;DHT22;9755;47.790;9.620;2023-06-22T10:07:08;38.70;27.80
19242;DHT22;9755;47.790;9.620;2023-06-22T10:09:35;35.50;27.80
19242;DHT22;9755;47.790;9.620;2023-06-22T10:12:02;35.30;29.40
19242;DHT22;9755;47.790;9.620;2023-06-22T10:14:29;32.30;33.20
19242;DHT22;9755;47.790;9.620;2023-06-22T10:16:58;32.60;36.60
19242;DHT22;9755;47.790;9.620;2023-06-22T10:19:25;33.50;35.20
19242;DHT22;9755;47.790;9.620;2023-06-22T10:21:52;34.60;34.20
19242;DHT22;9755;47.790;9.620;2023-06-22T10:24:21;34.50;32.40
19242;DHT22;9755;47.790;9.620;2023-06-22T10:26:48;35.20;32.20
19242;DHT22;9755;47.790;9.620;2023-06-22T10:29:15;35.10;31.90
19242;DHT22;9755;47.790;9.620;2023-06-22T10:31:41;33.60;32.20
19242;DHT22;9755;47.790;9.620;2023-06-22T10:34:10;34.50;34.00
19242;DHT22;9755;47.790;9.620;2023-06-22T10:36:38;33.40;33.60
19242;DHT22;9755;47.790;9.620;2023-06-22T10:39:05;34.30;33.90
19242;DHT22;9755;47.790;9.620;2023-06-22T10:41:32;34.40;33.90
19242;DHT22;9755;47.790;9.620;2023-06-22T10:43:59;35.00;32.80
19242;DHT22;9755;47.790;9.620;2023-06-22T10:46:26;35.30;32.60
19242;DHT22;9755;47.790;9.620;2023-06-22T10:48:53;35.30;32.00
19242;DHT22;9755;47.790;9.620;2023-06-22T10:51:24;35.50;30.50
19242;DHT22;9755;47.790;9.620;2023-06-22T10:53:51;35.40;30.00
19242;DHT22;9755;47.790;9.620;2023-06-22T10:56:18;35.70;29.80
19242;DHT22;9755;47.790;9.620;2023-06-22T10:58:45;36.00;30.00
19242;DHT22;9755;47.790;9.620;2023-06-22T11:01:13;35.30;29.20
19242;DHT22;9755;47.790;9.620;2023-06-22T11:03:40;36.20;29.30
19242;DHT22;9755;47.790;9.620;2023-06-22T11:06:07;37.40;27.80
19242;DHT22;9755;47.790;9.620;2023-06-22T11:08:35;37.30;26.80
19242;DHT22;9755;47.790;9.620;2023-06-22T11:11:02;37.20;26.80
19242;DHT22;9755;47.790;9.620;2023-06-22T11:13:29;37.80;25.80
19242;DHT22;9755;47.790;9.620;2023-06-22T11:15:56;37.50;24.60
19242;DHT22;9755;47.790;9.620;2023-06-22T11:18:23;37.00;24.40
19242;DHT22;9755;47.790;9.620;2023-06-22T11:20:50;37.10;25.50
19242;DHT22;9755;47.790;9.620;2023-06-22T11:23:18;37.80;24.70
19242;DHT22;9755;47.790;9.620;2023-06-22T11:25:47;37.90;23.60
19242;DHT22;9755;47.790;9.620;2023-06-22T11:28:14;38.00;22.20
19242;DHT22;9755;47.790;9.620;2023-06-22T11:30:41;38.80;22.10
19242;DHT22;9755;47.790;9.620;2023-06-22T11:33:08;39.90;20.20
19242;DHT22;9755;47.790;9.620;2023-06-22T11:35:35;40.00;20.00
19242;DHT22;9755;47.790;9.620;2023-06-22T11:38:02;39.90;18.90
19242;DHT22;9755;47.790;9.620;2023-06-22T11:40:30;39.60;17.60
19242;DHT22;9755;47.790;9.620;2023-06-22T11:42:58;38.80;18.10
19242;DHT22;9755;47.790;9.620;2023-06-22T11:45:26;38.50;17.80
19242;DHT22;9755;47.790;9.620;2023-06-22T11:47:53;37.90;18.00
19242;DHT22;9755;47.790;9.620;2023-06-22T11:50:20;37.80;17.50
19242;DHT22;9755;47.790;9.620;2023-06-22T11:52:47;37.70;16.90
19242;DHT22;9755;47.790;9.620;2023-06-22T11:55:15;37.70;17.80
19242;DHT22;9755;47.790;9.620;2023-06-22T11:57:53;38.10;18.40
19242;DHT22;9755;47.790;9.620;2023-06-22T12:00:22;38.10;19.50
19242;DHT22;9755;47.790;9.620;2023-06-22T12:02:50;38.50;18.90
19242;DHT22;9755;47.790;9.620;2023-06-22T12:05:18;37.90;18.10
19242;DHT22;9755;47.790;9.620;2023-06-22T12:07:46;36.60;20.70
19242;DHT22;9755;47.790;9.620;2023-06-22T12:10:13;35.70;22.20
19242;DHT22;9755;47.790;9.620;2023-06-22T12:12:40;35.90;23.20
19242;DHT22;9755;47.790;9.620;2023-06-22T12:15:08;36.00;21.50
19242;DHT22;9755;47.790;9.620;2023-06-22T12:17:37;35.00;22.10
19242;DHT22;9755;47.790;9.620;2023-06-22T12:20:05;34.50;22.20
19242;DHT22;9755;47.790;9.620;2023-06-22T12:22:33;34.00;23.10
19242;DHT22;9755;47.790;9.620;2023-06-22T12:25:01;33.80;23.80
19242;DHT22;9755;47.790;9.620;2023-06-22T12:27:28;32.90;24.10
19242;DHT22;9755;47.790;9.620;2023-06-22T12:29:56;32.50;24.60
19242;DHT22;9755;47.790;9.620;2023-06-22T12:32:23;32.80;24.70
19242;DHT22;9755;47.790;9.620;2023-06-22T12:34:52;33.20;25.70
19242;DHT22;9755;47.790;9.620;2023-06-22T12:37:19;33.20;26.10
19242;DHT22;9755;47.790;9.620;2023-06-22T12:39:46;33.30;26.00
19242;DHT22;9755;47.790;9.620;2023-06-22T12:42:14;33.40;25.60
19242;DHT22;9755;47.790;9.620;2023-06-22T12:44:42;33.30;25.90
19242;DHT22;9755;47.790;9.620;2023-06-22T12:47:09;33.30;26.10
19242;DHT22;9755;47.790;9.620;2023-06-22T12:49:37;33.10;26.80
19242;DHT22;9755;47.790;9.620;2023-06-22T12:52:09;32.80;27.40
19242;DHT22;9755;47.790;9.620;2023-06-22T12:54:36;32.60;27.80
19242;DHT22;9755;47.790;9.620;2023-06-22T12:57:04;32.70;28.40
19242;DHT22;9755;47.790;9.620;2023-06-22T12:59:31;33.30;28.20
19242;DHT22;9755;47.790;9.620;2023-06-22T13:01:58;33.30;27.80
19242;DHT22;9755;47.790;9.620;2023-06-22T13:04:25;33.20;27.70
19242;DHT22;9755;47.790;9.620;2023-06-22T13:06:52;33.20;28.20
19242;DHT22;9755;47.790;9.620;2023-06-22T13:09:21;33.50;28.30
19242;DHT22;9755;47.790;9.620;2023-06-22T13:11:48;33.20;28.50
19242;DHT22;9755;47.790;9.620;2023-06-22T13:14:15;33.30;28.50
19242;DHT22;9755;47.790;9.620;2023-06-22T13:16:42;33.50;29.10
19242;DHT22;9755;47.790;9.620;2023-06-22T13:19:09;33.80;28.70
19242;DHT22;9755;47.790;9.620;2023-06-22T13:21:36;34.10;27.80
19242;DHT22;9755;47.790;9.620;2023-06-22T13:24:04;34.30;27.80
19242;DHT22;9755;47.790;9.620;2023-06-22T13:26:34;34.40;27.50
19242;DHT22;9755;47.790;9.620;2023-06-22T13:29:01;34.70;26.90
19242;DHT22;9755;47.790;9.620;2023-06-22T13:31:28;35.00;26.50
19242;DHT22;9755;47.790;9.620;2023-06-22T13:33:55;35.20;25.90
19242;DHT22;9755;47.790;9.620;2023-06-22T13:36:22;33.90;26.20
19242;DHT22;9755;47.790;9.620;2023-06-22T13:38:49;34.30;25.90
19242;DHT22;9755;47.790;9.620;2023-06-22T13:41:16;34.80;25.40
19242;DHT22;9755;47.790;9.620;2023-06-22T13:43:45;35.50;25.60
19242;DHT22;9755;47.790;9.620;2023-06-22T13:46:12;34.90;25.40
19242;DHT22;9755;47.790;9.620;2023-06-22T13:48:39;34.30;26.10
19242;DHT22;9755;47.790;9.620;2023-06-22T13:51:06;34.10;25.70
19242;DHT22;9755;47.790;9.620;2023-06-22T13:53:33;34.40;24.80
19242;DHT22;9755;47.790;9.620;2023-06-22T13:56:00;34.40;24.40
19242;DHT22;9755;47.790;9.620;2023-06-22T13:58:27;34.50;25.20
19242;DHT22;9755;47.790;9.620;2023-06-22T14:00:55;34.70;25.60
19242;DHT22;9755;47.790;9.620;2023-06-22T14:03:22;35.40;26.20
19242;DHT22;9755;47.790;9.620;2023-06-22T14:05:49;34.80;23.90
19242;DHT22;9755;47.790;9.620;2023-06-22T14:08:19;35.10;23.40
19242;DHT22;9755;47.790;9.620;2023-06-22T14:10:49;35.40;23.80
19242;DHT22;9755;47.790;9.620;2023-06-22T14:13:16;35.00;23.60
19242;DHT22;9755;47.790;9.620;2023-06-22T14:15:43;35.40;23.20
19242;DHT22;9755;47.790;9.620;2023-06-22T14:18:11;35.70;23.20
19242;DHT22;9755;47.790;9.620;2023-06-22T14:20:40;36.20;22.80
19242;DHT22;9755;47.790;9.620;2023-06-22T14:23:07;36.60;22.30
19242;DHT22;9755;47.790;9.620;2023-06-22T14:25:34;37.00;21.70
19242;DHT22;9755;47.790;9.620;2023-06-22T14:28:01;36.90;21.50
19242;DHT22;9755;47.790;9.620;2023-06-22T14:30:28;36.50;19.50
19242;DHT22;9755;47.790;9.620;2023-06-22T14:32:55;35.50;20.10
19242;DHT22;9755;47.790;9.620;2023-06-22T14:35:23;34.80;20.60
19242;DHT22;9755;47.790;9.620;2023-06-22T14:37:50;34.70;21.60
19242;DHT22;9755;47.790;9.620;2023-06-22T14:40:17;34.50;22.20
19242;DHT22;9755;47.790;9.620;2023-06-22T14:42:44;33.80;24.10
19242;DHT22;9755;47.790;9.620;2023-06-22T14:45:12;33.30;25.60
19242;DHT22;9755;47.790;9.620;2023-06-22T14:47:39;33.40;26.20
19242;DHT22;9755;47.790;9.620;2023-06-22T14:50:07;33.00;26.80
19242;DHT22;9755;47.790;9.620;2023-06-22T14:52:36;32.90;27.60
19242;DHT22;9755;47.790;9.620;2023-06-22T14:55:03;32.70;28.10
19242;DHT22;9755;47.790;9.620;2023-06-22T14:57:31;32.80;29.60
19242;DHT22;9755;47.790;9.620;2023-06-22T14:59:58;32.00;33.10
19242;DHT22;9755;47.790;9.620;2023-06-22T15:02:27;31.60;36.40
19242;DHT22;9755;47.790;9.620;2023-06-22T15:04:54;31.20;39.50
19242;DHT22;9755;47.790;9.620;2023-06-22T15:07:21;31.10;42.10
19242;DHT22;9755;47.790;9.620;2023-06-22T15:09:49;31.00;44.10
19242;DHT22;9755;47.790;9.620;2023-06-22T15:12:16;30.70;47.80
19242;DHT22;9755;47.790;9.620;2023-06-22T15:14:44;30.40;49.00
19242;DHT22;9755;47.790;9.620;2023-06-22T15:17:11;30.30;49.80
19242;DHT22;9755;47.790;9.620;2023-06-22T15:19:39;30.60;50.30
19242;DHT22;9755;47.790;9.620;2023-06-22T15:22:07;30.80;48.10
19242;DHT22;9755;47.790;9.620;2023-06-22T15:24:34;30.90;47.20
19242;DHT22;9755;47.790;9.620;2023-06-22T15:27:03;30.70;45.00
19242;DHT22;9755;47.790;9.620;2023-06-22T15:29:30;30.80;45.20
19242;DHT22;9755;47.790;9.620;2023-06-22T15:31:59;30.90;45.00
19242;DHT22;9755;47.790;9.620;2023-06-22T15:34:27;30.90;36.80
19242;DHT22;9755;47.790;9.620;2023-06-22T15:36:54;31.20;39.40
19242;DHT22;9755;47.790;9.620;2023-06-22T15:39:21;31.40;37.40
19242;DHT22;9755;47.790;9.620;2023-06-22T15:41:50;31.80;38.40
19242;DHT22;9755;47.790;9.620;2023-06-22T15:44:21;32.20;33.20
19242;DHT22;9755;47.790;9.620;2023-06-22T15:46:48;32.40;31.00
19242;DHT22;9755;47.790;9.620;2023-06-22T15:49:15;32.50;29.30
19242;DHT22;9755;47.790;9.620;2023-06-22T15:51:43;32.70;29.40